sensor_id;sensor_type;location;lat;lon;timestamp;P1;durP1;ratioP1;P2;durP2;ratioP2
70850;SDS011;58475;49.662;9.636;2022-10-15T00:01:23;6.10;;;3.40;;
70850;SDS011;58475;49.662;9.636;2022-10-15T00:03:49;7.63;;;3.45;;
70850;SDS011;58475;49.662;9.636;2022-10-15T00:06:16;9.95;;;3.83;;
70850;SDS011;58475;49.662;9.636;2022-10-15T00:08:43;6.60;;;3.55;;
70850;SDS011;58475;49.662;9.636;2022-10-15T00:11:10;5.65;;;3.03;;
70850;SDS011;58475;49.662;9.636;2022-10-15T00:13:39;6.47;;;3.17;;
70850;SDS011;58475;49.662;9.636;2022-10-15T00:16:08;7.13;;;3.47;;
70850;SDS011;58475;49.662;9.636;2022-10-15T00:18:37;6.97;;;3.65;;
70850;SDS011;58475;49.662;9.636;2022-10-15T00:21:07;6.90;;;3.65;;
70850;SDS011;58475;49.662;9.636;2022-10-15T00:23:33;5.40;;;2.97;;
70850;SDS011;58475;49.662;9.636;2022-10-15T00:26:00;6.65;;;2.95;;
70850;SDS011;58475;49.662;9.636;2022-10-15T00:28:27;6.45;;;2.97;;
70850;SDS011;58475;49.662;9.636;2022-10-15T00:30:58;4.53;;;2.30;;
70850;SDS011;58475;49.662;9.636;2022-10-15T00:33:29;4.88;;;2.70;;
70850;SDS011;58475;49.662;9.636;2022-10-15T00:36:02;4.28;;;2.30;;
70850;SDS011;58475;49.662;9.636;2022-10-15T00:38:33;4.88;;;2.33;;
70850;SDS011;58475;49.662;9.636;2022-10-15T00:40:59;5.20;;;2.60;;
70850;SDS011;58475;49.662;9.636;2022-10-15T00:43:42;6.15;;;2.50;;
70850;SDS011;58475;49.662;9.636;2022-10-15T00:46:50;4.70;;;2.50;;
70850;SDS011;58475;49.662;9.636;2022-10-15T00:49:01;4.20;;;2.30;;
70850;SDS011;58475;49.662;9.636;2022-10-15T00:51:29;5.07;;;2.20;;
70850;SDS011;58475;49.662;9.636;2022-10-15T00:53:57;5.40;;;2.45;;
70850;SDS011;58475;49.662;9.636;2022-10-15T00:56:23;4.65;;;2.60;;
70850;SDS011;58475;49.662;9.636;2022-10-15T00:58:51;5.03;;;2.55;;
70850;SDS011;58475;49.662;9.636;2022-10-15T01:01:19;5.97;;;2.65;;
70850;SDS011;58475;49.662;9.636;2022-10-15T01:03:45;5.03;;;2.67;;
70850;SDS011;58475;49.662;9.636;2022-10-15T01:06:11;4.47;;;2.50;;
70850;SDS011;58475;49.662;9.636;2022-10-15T01:08:39;5.60;;;2.50;;
70850;SDS011;58475;49.662;9.636;2022-10-15T01:16:18;4.78;;;2.60;;
70850;SDS011;58475;49.662;9.636;2022-10-15T01:18:53;4.72;;;2.40;;
70850;SDS011;58475;49.662;9.636;2022-10-15T01:21:33;5.47;;;2.58;;
70850;SDS011;58475;49.662;9.636;2022-10-15T01:35:52;5.40;;;2.58;;
70850;SDS011;58475;49.662;9.636;2022-10-15T01:38:26;5.63;;;2.93;;
70850;SDS011;58475;49.662;9.636;2022-10-15T01:41:00;5.43;;;2.63;;
70850;SDS011;58475;49.662;9.636;2022-10-15T01:43:56;6.45;;;2.80;;
70850;SDS011;58475;49.662;9.636;2022-10-15T01:47:18;5.90;;;2.80;;
70850;SDS011;58475;49.662;9.636;2022-10-15T01:49:40;5.85;;;2.65;;
70850;SDS011;58475;49.662;9.636;2022-10-15T01:52:27;5.45;;;2.75;;
70850;SDS011;58475;49.662;9.636;2022-10-15T01:54:55;4.63;;;2.53;;
70850;SDS011;58475;49.662;9.636;2022-10-15T01:57:22;5.75;;;2.78;;
70850;SDS011;58475;49.662;9.636;2022-10-15T01:59:50;8.32;;;2.75;;
70850;SDS011;58475;49.662;9.636;2022-10-15T02:02:16;4.50;;;2.45;;
70850;SDS011;58475;49.662;9.636;2022-10-15T02:04:43;5.85;;;2.50;;
70850;SDS011;58475;49.662;9.636;2022-10-15T02:07:10;5.85;;;2.63;;
70850;SDS011;58475;49.662;9.636;2022-10-15T02:14:52;7.55;;;2.47;;
70850;SDS011;58475;49.662;9.636;2022-10-15T02:20:44;5.13;;;2.40;;
70850;SDS011;58475;49.662;9.636;2022-10-15T02:23:16;5.07;;;2.30;;
70850;SDS011;58475;49.662;9.636;2022-10-15T02:25:46;6.40;;;2.70;;
70850;SDS011;58475;49.662;9.636;2022-10-15T02:28:14;6.80;;;3.00;;
70850;SDS011;58475;49.662;9.636;2022-10-15T02:30:43;9.93;;;3.55;;
70850;SDS011;58475;49.662;9.636;2022-10-15T02:33:10;4.60;;;2.50;;
70850;SDS011;58475;49.662;9.636;2022-10-15T02:35:38;5.85;;;2.80;;
70850;SDS011;58475;49.662;9.636;2022-10-15T02:38:05;5.32;;;2.63;;
70850;SDS011;58475;49.662;9.636;2022-10-15T02:40:33;5.43;;;2.88;;
70850;SDS011;58475;49.662;9.636;2022-10-15T02:43:02;5.82;;;2.75;;
70850;SDS011;58475;49.662;9.636;2022-10-15T02:45:29;7.25;;;3.00;;
70850;SDS011;58475;49.662;9.636;2022-10-15T02:47:55;5.78;;;2.92;;
70850;SDS011;58475;49.662;9.636;2022-10-15T02:50:22;4.40;;;2.47;;
70850;SDS011;58475;49.662;9.636;2022-10-15T02:52:48;5.18;;;2.83;;
70850;SDS011;58475;49.662;9.636;2022-10-15T02:55:13;5.75;;;2.80;;
70850;SDS011;58475;49.662;9.636;2022-10-15T02:57:39;6.10;;;2.95;;
70850;SDS011;58475;49.662;9.636;2022-10-15T03:00:06;6.63;;;3.13;;
70850;SDS011;58475;49.662;9.636;2022-10-15T03:02:33;4.75;;;2.55;;
70850;SDS011;58475;49.662;9.636;2022-10-15T03:04:58;5.70;;;2.58;;
70850;SDS011;58475;49.662;9.636;2022-10-15T03:07:24;5.00;;;2.35;;
70850;SDS011;58475;49.662;9.636;2022-10-15T03:09:49;6.95;;;2.63;;
70850;SDS011;58475;49.662;9.636;2022-10-15T03:12:15;7.55;;;2.60;;
70850;SDS011;58475;49.662;9.636;2022-10-15T03:14:40;5.10;;;2.42;;
70850;SDS011;58475;49.662;9.636;2022-10-15T03:17:05;5.88;;;2.83;;
70850;SDS011;58475;49.662;9.636;2022-10-15T03:19:31;5.50;;;2.67;;
70850;SDS011;58475;49.662;9.636;2022-10-15T03:21:56;5.63;;;2.60;;
70850;SDS011;58475;49.662;9.636;2022-10-15T03:24:22;4.72;;;2.60;;
70850;SDS011;58475;49.662;9.636;2022-10-15T03:26:48;5.97;;;2.75;;
70850;SDS011;58475;49.662;9.636;2022-10-15T03:29:13;5.43;;;2.75;;
70850;SDS011;58475;49.662;9.636;2022-10-15T03:31:49;5.70;;;2.80;;
70850;SDS011;58475;49.662;9.636;2022-10-15T03:34:15;5.72;;;2.88;;
70850;SDS011;58475;49.662;9.636;2022-10-15T03:36:40;5.28;;;2.58;;
70850;SDS011;58475;49.662;9.636;2022-10-15T03:39:09;4.35;;;2.28;;
70850;SDS011;58475;49.662;9.636;2022-10-15T03:41:36;5.45;;;2.83;;
70850;SDS011;58475;49.662;9.636;2022-10-15T03:44:04;6.18;;;2.90;;
70850;SDS011;58475;49.662;9.636;2022-10-15T03:46:33;4.57;;;2.53;;
70850;SDS011;58475;49.662;9.636;2022-10-15T03:48:59;5.75;;;3.00;;
70850;SDS011;58475;49.662;9.636;2022-10-15T03:51:25;4.72;;;2.50;;
70850;SDS011;58475;49.662;9.636;2022-10-15T03:53:56;6.70;;;2.80;;
70850;SDS011;58475;49.662;9.636;2022-10-15T03:56:22;5.25;;;2.70;;
70850;SDS011;58475;49.662;9.636;2022-10-15T03:58:48;4.85;;;2.60;;
70850;SDS011;58475;49.662;9.636;2022-10-15T04:01:15;5.05;;;2.70;;
70850;SDS011;58475;49.662;9.636;2022-10-15T04:03:41;5.28;;;2.78;;
70850;SDS011;58475;49.662;9.636;2022-10-15T04:06:07;4.18;;;2.38;;
70850;SDS011;58475;49.662;9.636;2022-10-15T04:08:34;5.55;;;2.97;;
70850;SDS011;58475;49.662;9.636;2022-10-15T04:11:06;4.82;;;2.50;;
70850;SDS011;58475;49.662;9.636;2022-10-15T04:13:31;5.07;;;2.50;;
70850;SDS011;58475;49.662;9.636;2022-10-15T04:15:57;5.10;;;2.58;;
70850;SDS011;58475;49.662;9.636;2022-10-15T04:18:22;5.75;;;2.75;;
70850;SDS011;58475;49.662;9.636;2022-10-15T04:20:52;5.22;;;2.45;;
70850;SDS011;58475;49.662;9.636;2022-10-15T04:23:20;4.90;;;2.60;;
70850;SDS011;58475;49.662;9.636;2022-10-15T04:26:05;6.20;;;3.33;;
70850;SDS011;58475;49.662;9.636;2022-10-15T04:28:30;8.38;;;3.10;;
70850;SDS011;58475;49.662;9.636;2022-10-15T04:30:58;6.80;;;3.38;;
70850;SDS011;58475;49.662;9.636;2022-10-15T04:33:25;6.15;;;3.47;;
70850;SDS011;58475;49.662;9.636;2022-10-15T04:35:59;6.00;;;3.58;;
70850;SDS011;58475;49.662;9.636;2022-10-15T04:38:46;7.63;;;4.35;;
70850;SDS011;58475;49.662;9.636;2022-10-15T04:41:11;6.50;;;3.40;;
70850;SDS011;58475;49.662;9.636;2022-10-15T04:43:56;7.55;;;2.95;;
70850;SDS011;58475;49.662;9.636;2022-10-15T04:46:22;5.22;;;2.78;;
70850;SDS011;58475;49.662;9.636;2022-10-15T04:48:48;6.95;;;3.80;;
70850;SDS011;58475;49.662;9.636;2022-10-15T04:51:17;5.55;;;3.13;;
70850;SDS011;58475;49.662;9.636;2022-10-15T04:54:15;6.00;;;3.40;;
70850;SDS011;58475;49.662;9.636;2022-10-15T04:57:01;5.90;;;2.78;;
70850;SDS011;58475;49.662;9.636;2022-10-15T04:59:30;6.47;;;3.22;;
70850;SDS011;58475;49.662;9.636;2022-10-15T05:02:15;6.13;;;3.20;;
70850;SDS011;58475;49.662;9.636;2022-10-15T05:04:42;7.63;;;5.10;;
70850;SDS011;58475;49.662;9.636;2022-10-15T05:07:08;8.93;;;6.55;;
70850;SDS011;58475;49.662;9.636;2022-10-15T05:09:34;8.02;;;3.90;;
70850;SDS011;58475;49.662;9.636;2022-10-15T05:11:59;7.75;;;3.65;;
70850;SDS011;58475;49.662;9.636;2022-10-15T05:14:26;6.40;;;3.60;;
70850;SDS011;58475;49.662;9.636;2022-10-15T05:17:04;6.40;;;3.63;;
70850;SDS011;58475;49.662;9.636;2022-10-15T05:19:36;6.85;;;3.28;;
70850;SDS011;58475;49.662;9.636;2022-10-15T05:22:01;5.50;;;3.03;;
70850;SDS011;58475;49.662;9.636;2022-10-15T05:24:28;8.95;;;3.17;;
70850;SDS011;58475;49.662;9.636;2022-10-15T05:26:59;5.80;;;2.90;;
70850;SDS011;58475;49.662;9.636;2022-10-15T05:29:28;5.80;;;2.90;;
70850;SDS011;58475;49.662;9.636;2022-10-15T05:31:53;7.15;;;3.05;;
70850;SDS011;58475;49.662;9.636;2022-10-15T05:34:24;6.97;;;2.88;;
70850;SDS011;58475;49.662;9.636;2022-10-15T05:36:58;5.88;;;3.20;;
70850;SDS011;58475;49.662;9.636;2022-10-15T05:39:24;5.57;;;3.22;;
70850;SDS011;58475;49.662;9.636;2022-10-15T05:41:51;5.90;;;3.10;;
70850;SDS011;58475;49.662;9.636;2022-10-15T05:44:21;18.83;;;11.77;;
70850;SDS011;58475;49.662;9.636;2022-10-15T05:46:46;16.95;;;10.07;;
70850;SDS011;58475;49.662;9.636;2022-10-15T05:49:17;11.40;;;6.40;;
70850;SDS011;58475;49.662;9.636;2022-10-15T05:51:49;7.78;;;4.47;;
70850;SDS011;58475;49.662;9.636;2022-10-15T05:54:26;11.95;;;7.55;;
70850;SDS011;58475;49.662;9.636;2022-10-15T05:56:52;9.38;;;6.00;;
70850;SDS011;58475;49.662;9.636;2022-10-15T05:59:17;8.57;;;4.65;;
70850;SDS011;58475;49.662;9.636;2022-10-15T06:01:42;7.55;;;3.75;;
70850;SDS011;58475;49.662;9.636;2022-10-15T06:04:08;9.60;;;3.22;;
70850;SDS011;58475;49.662;9.636;2022-10-15T06:06:34;5.65;;;3.10;;
70850;SDS011;58475;49.662;9.636;2022-10-15T06:08:59;8.00;;;4.30;;
70850;SDS011;58475;49.662;9.636;2022-10-15T06:11:25;4.93;;;2.65;;
70850;SDS011;58475;49.662;9.636;2022-10-15T06:13:51;6.80;;;2.88;;
70850;SDS011;58475;49.662;9.636;2022-10-15T06:16:17;6.63;;;3.05;;
70850;SDS011;58475;49.662;9.636;2022-10-15T06:18:43;7.97;;;3.00;;
70850;SDS011;58475;49.662;9.636;2022-10-15T06:21:08;6.18;;;2.92;;
70850;SDS011;58475;49.662;9.636;2022-10-15T06:23:35;5.68;;;2.70;;
70850;SDS011;58475;49.662;9.636;2022-10-15T06:26:02;6.57;;;2.90;;
70850;SDS011;58475;49.662;9.636;2022-10-15T06:28:28;6.63;;;2.83;;
70850;SDS011;58475;49.662;9.636;2022-10-15T06:30:56;4.70;;;2.70;;
70850;SDS011;58475;49.662;9.636;2022-10-15T06:33:23;4.72;;;2.50;;
70850;SDS011;58475;49.662;9.636;2022-10-15T06:35:48;4.47;;;2.60;;
70850;SDS011;58475;49.662;9.636;2022-10-15T06:38:13;5.10;;;2.70;;
70850;SDS011;58475;49.662;9.636;2022-10-15T06:40:39;5.80;;;2.40;;
70850;SDS011;58475;49.662;9.636;2022-10-15T06:43:08;4.85;;;2.65;;
70850;SDS011;58475;49.662;9.636;2022-10-15T06:45:38;5.20;;;2.60;;
70850;SDS011;58475;49.662;9.636;2022-10-15T06:48:14;7.72;;;2.42;;
70850;SDS011;58475;49.662;9.636;2022-10-15T06:50:40;4.82;;;2.42;;
70850;SDS011;58475;49.662;9.636;2022-10-15T06:53:06;7.07;;;2.70;;
70850;SDS011;58475;49.662;9.636;2022-10-15T06:55:32;5.00;;;2.60;;
70850;SDS011;58475;49.662;9.636;2022-10-15T06:57:57;5.88;;;2.45;;
70850;SDS011;58475;49.662;9.636;2022-10-15T07:00:24;4.57;;;2.47;;
70850;SDS011;58475;49.662;9.636;2022-10-15T07:02:51;4.10;;;2.42;;
70850;SDS011;58475;49.662;9.636;2022-10-15T07:05:17;5.00;;;2.50;;
70850;SDS011;58475;49.662;9.636;2022-10-15T07:07:50;4.35;;;2.33;;
70850;SDS011;58475;49.662;9.636;2022-10-15T07:10:19;4.45;;;2.30;;
70850;SDS011;58475;49.662;9.636;2022-10-15T07:12:46;6.15;;;2.40;;
70850;SDS011;58475;49.662;9.636;2022-10-15T07:15:12;6.22;;;2.42;;
70850;SDS011;58475;49.662;9.636;2022-10-15T07:17:37;6.05;;;3.30;;
70850;SDS011;58475;49.662;9.636;2022-10-15T07:20:04;6.20;;;2.80;;
70850;SDS011;58475;49.662;9.636;2022-10-15T07:22:30;7.50;;;5.32;;
70850;SDS011;58475;49.662;9.636;2022-10-15T07:24:55;6.60;;;3.20;;
70850;SDS011;58475;49.662;9.636;2022-10-15T07:27:21;7.90;;;2.97;;
70850;SDS011;58475;49.662;9.636;2022-10-15T07:29:46;6.65;;;4.05;;
70850;SDS011;58475;49.662;9.636;2022-10-15T07:32:11;6.25;;;3.78;;
70850;SDS011;58475;49.662;9.636;2022-10-15T07:34:37;8.10;;;4.35;;
70850;SDS011;58475;49.662;9.636;2022-10-15T07:37:02;12.48;;;8.05;;
70850;SDS011;58475;49.662;9.636;2022-10-15T07:39:28;11.90;;;7.18;;
70850;SDS011;58475;49.662;9.636;2022-10-15T07:41:53;11.70;;;7.25;;
70850;SDS011;58475;49.662;9.636;2022-10-15T07:44:18;15.30;;;7.07;;
70850;SDS011;58475;49.662;9.636;2022-10-15T07:46:45;13.07;;;9.38;;
70850;SDS011;58475;49.662;9.636;2022-10-15T07:49:11;10.23;;;7.78;;
70850;SDS011;58475;49.662;9.636;2022-10-15T07:51:37;11.45;;;7.63;;
70850;SDS011;58475;49.662;9.636;2022-10-15T07:54:02;14.48;;;8.25;;
70850;SDS011;58475;49.662;9.636;2022-10-15T07:56:28;12.75;;;7.30;;
70850;SDS011;58475;49.662;9.636;2022-10-15T07:58:53;11.73;;;8.95;;
70850;SDS011;58475;49.662;9.636;2022-10-15T08:01:19;13.57;;;9.73;;
70850;SDS011;58475;49.662;9.636;2022-10-15T08:03:45;15.15;;;9.50;;
70850;SDS011;58475;49.662;9.636;2022-10-15T08:06:11;15.25;;;10.75;;
70850;SDS011;58475;49.662;9.636;2022-10-15T08:08:37;13.20;;;9.75;;
70850;SDS011;58475;49.662;9.636;2022-10-15T08:11:03;14.27;;;9.90;;
70850;SDS011;58475;49.662;9.636;2022-10-15T08:13:30;15.13;;;9.50;;
70850;SDS011;58475;49.662;9.636;2022-10-15T08:15:56;12.75;;;8.48;;
70850;SDS011;58475;49.662;9.636;2022-10-15T08:18:21;14.52;;;11.48;;
70850;SDS011;58475;49.662;9.636;2022-10-15T08:20:47;15.30;;;11.80;;
70850;SDS011;58475;49.662;9.636;2022-10-15T08:23:14;16.60;;;12.10;;
70850;SDS011;58475;49.662;9.636;2022-10-15T08:25:40;20.60;;;14.23;;
70850;SDS011;58475;49.662;9.636;2022-10-15T08:28:08;21.27;;;15.38;;
70850;SDS011;58475;49.662;9.636;2022-10-15T08:30:35;16.58;;;13.30;;
70850;SDS011;58475;49.662;9.636;2022-10-15T08:33:08;15.35;;;10.23;;
70850;SDS011;58475;49.662;9.636;2022-10-15T08:35:33;11.95;;;9.07;;
70850;SDS011;58475;49.662;9.636;2022-10-15T08:38:01;10.15;;;7.53;;
70850;SDS011;58475;49.662;9.636;2022-10-15T08:40:27;9.43;;;5.63;;
70850;SDS011;58475;49.662;9.636;2022-10-15T08:42:53;6.97;;;4.55;;
70850;SDS011;58475;49.662;9.636;2022-10-15T08:45:35;7.70;;;4.15;;
70850;SDS011;58475;49.662;9.636;2022-10-15T08:48:10;7.78;;;5.25;;
70850;SDS011;58475;49.662;9.636;2022-10-15T08:50:47;9.07;;;5.57;;
70850;SDS011;58475;49.662;9.636;2022-10-15T08:53:19;10.05;;;6.88;;
70850;SDS011;58475;49.662;9.636;2022-10-15T08:55:48;9.15;;;4.00;;
70850;SDS011;58475;49.662;9.636;2022-10-15T08:58:25;5.15;;;3.08;;
70850;SDS011;58475;49.662;9.636;2022-10-15T09:01:00;7.53;;;3.30;;
70850;SDS011;58475;49.662;9.636;2022-10-15T09:06:43;7.00;;;3.63;;
70850;SDS011;58475;49.662;9.636;2022-10-15T09:15:12;7.10;;;3.47;;
70850;SDS011;58475;49.662;9.636;2022-10-15T09:17:42;6.32;;;3.63;;
70850;SDS011;58475;49.662;9.636;2022-10-15T09:20:15;4.60;;;2.30;;
70850;SDS011;58475;49.662;9.636;2022-10-15T09:22:49;4.75;;;2.33;;
70850;SDS011;58475;49.662;9.636;2022-10-15T09:25:17;3.05;;;1.67;;
70850;SDS011;58475;49.662;9.636;2022-10-15T09:27:45;8.20;;;4.28;;
70850;SDS011;58475;49.662;9.636;2022-10-15T09:32:58;6.55;;;2.75;;
70850;SDS011;58475;49.662;9.636;2022-10-15T09:35:50;6.40;;;2.92;;
70850;SDS011;58475;49.662;9.636;2022-10-15T09:41:23;6.90;;;4.15;;
70850;SDS011;58475;49.662;9.636;2022-10-15T09:43:52;7.88;;;5.18;;
70850;SDS011;58475;49.662;9.636;2022-10-15T09:46:21;6.40;;;2.72;;
70850;SDS011;58475;49.662;9.636;2022-10-15T09:49:01;8.23;;;4.28;;
70850;SDS011;58475;49.662;9.636;2022-10-15T09:51:33;7.57;;;3.95;;
70850;SDS011;58475;49.662;9.636;2022-10-15T09:54:11;10.07;;;5.05;;
70850;SDS011;58475;49.662;9.636;2022-10-15T09:56:50;6.40;;;2.70;;
70850;SDS011;58475;49.662;9.636;2022-10-15T09:59:19;5.07;;;2.10;;
70850;SDS011;58475;49.662;9.636;2022-10-15T10:01:59;4.95;;;2.17;;
70850;SDS011;58475;49.662;9.636;2022-10-15T10:04:29;3.08;;;1.60;;
70850;SDS011;58475;49.662;9.636;2022-10-15T10:06:58;2.45;;;1.50;;
70850;SDS011;58475;49.662;9.636;2022-10-15T10:12:20;1.75;;;1.10;;
70850;SDS011;58475;49.662;9.636;2022-10-15T10:14:52;4.88;;;1.88;;
70850;SDS011;58475;49.662;9.636;2022-10-15T10:17:19;3.17;;;1.80;;
70850;SDS011;58475;49.662;9.636;2022-10-15T10:20:03;1.42;;;1.20;;
70850;SDS011;58475;49.662;9.636;2022-10-15T10:22:39;2.72;;;1.50;;
70850;SDS011;58475;49.662;9.636;2022-10-15T10:38:55;7.00;;;3.78;;
70850;SDS011;58475;49.662;9.636;2022-10-15T10:44:37;4.97;;;2.47;;
70850;SDS011;58475;49.662;9.636;2022-10-15T10:49:53;1.50;;;1.30;;
70850;SDS011;58475;49.662;9.636;2022-10-15T10:52:35;1.13;;;1.10;;
70850;SDS011;58475;49.662;9.636;2022-10-15T11:00:28;1.83;;;1.15;;
70850;SDS011;58475;49.662;9.636;2022-10-15T11:02:58;1.67;;;1.02;;
70850;SDS011;58475;49.662;9.636;2022-10-15T11:05:25;1.70;;;1.15;;
70850;SDS011;58475;49.662;9.636;2022-10-15T11:07:58;1.45;;;1.20;;
70850;SDS011;58475;49.662;9.636;2022-10-15T11:10:29;2.20;;;1.75;;
70850;SDS011;58475;49.662;9.636;2022-10-15T11:13:02;3.42;;;1.30;;
70850;SDS011;58475;49.662;9.636;2022-10-15T11:46:46;3.50;;;1.90;;
70850;SDS011;58475;49.662;9.636;2022-10-15T11:52:12;1.80;;;1.40;;
70850;SDS011;58475;49.662;9.636;2022-10-15T11:54:59;1.42;;;1.20;;
70850;SDS011;58475;49.662;9.636;2022-10-15T11:57:37;1.05;;;0.90;;
70850;SDS011;58475;49.662;9.636;2022-10-15T12:02:49;1.65;;;1.00;;
70850;SDS011;58475;49.662;9.636;2022-10-15T12:05:16;2.67;;;0.88;;
70850;SDS011;58475;49.662;9.636;2022-10-15T12:07:46;2.70;;;1.20;;
70850;SDS011;58475;49.662;9.636;2022-10-15T12:23:59;1.90;;;1.30;;
70850;SDS011;58475;49.662;9.636;2022-10-15T12:26:27;1.83;;;1.20;;
70850;SDS011;58475;49.662;9.636;2022-10-15T12:28:59;4.00;;;1.42;;
70850;SDS011;58475;49.662;9.636;2022-10-15T12:31:41;4.95;;;1.92;;
70850;SDS011;58475;49.662;9.636;2022-10-15T12:34:19;3.20;;;1.50;;
70850;SDS011;58475;49.662;9.636;2022-10-15T12:36:59;1.92;;;1.50;;
70850;SDS011;58475;49.662;9.636;2022-10-15T12:39:27;2.85;;;1.50;;
70850;SDS011;58475;49.662;9.636;2022-10-15T12:41:56;2.63;;;1.63;;
70850;SDS011;58475;49.662;9.636;2022-10-15T12:44:23;2.38;;;1.50;;
70850;SDS011;58475;49.662;9.636;2022-10-15T12:46:58;3.55;;;1.65;;
70850;SDS011;58475;49.662;9.636;2022-10-15T12:52:01;2.30;;;1.67;;
70850;SDS011;58475;49.662;9.636;2022-10-15T12:54:49;2.50;;;1.63;;
70850;SDS011;58475;49.662;9.636;2022-10-15T12:59:55;3.05;;;1.40;;
70850;SDS011;58475;49.662;9.636;2022-10-15T13:04:56;3.25;;;1.60;;
70850;SDS011;58475;49.662;9.636;2022-10-15T13:07:22;2.38;;;1.40;;
70850;SDS011;58475;49.662;9.636;2022-10-15T13:09:47;3.58;;;1.80;;
70850;SDS011;58475;49.662;9.636;2022-10-15T13:12:22;3.22;;;1.52;;
70850;SDS011;58475;49.662;9.636;2022-10-15T13:14:55;1.65;;;1.23;;
70850;SDS011;58475;49.662;9.636;2022-10-15T13:17:23;4.20;;;1.67;;
70850;SDS011;58475;49.662;9.636;2022-10-15T13:19:57;2.72;;;1.60;;
70850;SDS011;58475;49.662;9.636;2022-10-15T13:22:30;2.47;;;1.30;;
70850;SDS011;58475;49.662;9.636;2022-10-15T13:24:57;3.10;;;1.50;;
70850;SDS011;58475;49.662;9.636;2022-10-15T13:27:33;2.13;;;1.20;;
70850;SDS011;58475;49.662;9.636;2022-10-15T13:32:39;1.95;;;1.13;;
70850;SDS011;58475;49.662;9.636;2022-10-15T13:35:10;3.50;;;1.70;;
70850;SDS011;58475;49.662;9.636;2022-10-15T13:37:41;1.65;;;1.05;;
70850;SDS011;58475;49.662;9.636;2022-10-15T13:40:19;3.33;;;1.27;;
70850;SDS011;58475;49.662;9.636;2022-10-15T13:42:59;1.90;;;1.15;;
70850;SDS011;58475;49.662;9.636;2022-10-15T13:45:25;5.95;;;2.40;;
70850;SDS011;58475;49.662;9.636;2022-10-15T13:47:51;7.22;;;2.67;;
70850;SDS011;58475;49.662;9.636;2022-10-15T13:50:28;5.82;;;2.13;;
70850;SDS011;58475;49.662;9.636;2022-10-15T13:53:19;5.82;;;2.90;;
70850;SDS011;58475;49.662;9.636;2022-10-15T13:55:58;3.42;;;1.52;;
70850;SDS011;58475;49.662;9.636;2022-10-15T14:01:01;2.38;;;1.30;;
70850;SDS011;58475;49.662;9.636;2022-10-15T14:05:55;1.95;;;1.20;;
70850;SDS011;58475;49.662;9.636;2022-10-15T14:08:43;2.53;;;1.50;;
70850;SDS011;58475;49.662;9.636;2022-10-15T14:11:09;3.17;;;1.58;;
70850;SDS011;58475;49.662;9.636;2022-10-15T14:13:42;4.10;;;1.80;;
70850;SDS011;58475;49.662;9.636;2022-10-15T14:18:44;4.38;;;1.90;;
70850;SDS011;58475;49.662;9.636;2022-10-15T14:21:12;4.50;;;1.90;;
70850;SDS011;58475;49.662;9.636;2022-10-15T14:23:40;5.13;;;1.95;;
70850;SDS011;58475;49.662;9.636;2022-10-15T14:26:08;3.65;;;2.05;;
70850;SDS011;58475;49.662;9.636;2022-10-15T14:28:35;3.80;;;1.70;;
70850;SDS011;58475;49.662;9.636;2022-10-15T14:31:02;2.60;;;1.48;;
70850;SDS011;58475;49.662;9.636;2022-10-15T14:36:07;2.80;;;1.25;;
70850;SDS011;58475;49.662;9.636;2022-10-15T14:38:43;3.75;;;1.70;;
70850;SDS011;58475;49.662;9.636;2022-10-15T14:43:58;5.63;;;2.50;;
70850;SDS011;58475;49.662;9.636;2022-10-15T14:46:42;4.53;;;1.30;;
70850;SDS011;58475;49.662;9.636;2022-10-15T14:49:28;4.53;;;1.70;;
70850;SDS011;58475;49.662;9.636;2022-10-15T14:52:06;3.90;;;1.30;;
70850;SDS011;58475;49.662;9.636;2022-10-15T14:54:37;2.47;;;1.15;;
70850;SDS011;58475;49.662;9.636;2022-10-15T14:57:12;3.08;;;1.30;;
70850;SDS011;58475;49.662;9.636;2022-10-15T14:59:44;3.28;;;1.30;;
70850;SDS011;58475;49.662;9.636;2022-10-15T15:02:12;3.05;;;1.40;;
70850;SDS011;58475;49.662;9.636;2022-10-15T15:04:41;3.33;;;1.43;;
70850;SDS011;58475;49.662;9.636;2022-10-15T15:07:12;2.08;;;1.15;;
70850;SDS011;58475;49.662;9.636;2022-10-15T15:09:40;2.35;;;1.42;;
70850;SDS011;58475;49.662;9.636;2022-10-15T15:12:17;1.92;;;1.20;;
70850;SDS011;58475;49.662;9.636;2022-10-15T15:14:45;3.22;;;1.30;;
70850;SDS011;58475;49.662;9.636;2022-10-15T15:17:12;2.65;;;1.35;;
70850;SDS011;58475;49.662;9.636;2022-10-15T15:19:42;3.45;;;1.40;;
70850;SDS011;58475;49.662;9.636;2022-10-15T15:22:09;3.20;;;1.30;;
70850;SDS011;58475;49.662;9.636;2022-10-15T15:24:38;2.38;;;1.30;;
70850;SDS011;58475;49.662;9.636;2022-10-15T15:27:03;2.58;;;1.25;;
70850;SDS011;58475;49.662;9.636;2022-10-15T15:29:29;2.75;;;1.40;;
70850;SDS011;58475;49.662;9.636;2022-10-15T15:31:54;4.13;;;1.13;;
70850;SDS011;58475;49.662;9.636;2022-10-15T15:34:20;3.35;;;1.20;;
70850;SDS011;58475;49.662;9.636;2022-10-15T15:36:47;2.75;;;1.17;;
70850;SDS011;58475;49.662;9.636;2022-10-15T15:39:13;2.03;;;1.15;;
70850;SDS011;58475;49.662;9.636;2022-10-15T15:41:38;1.90;;;1.20;;
70850;SDS011;58475;49.662;9.636;2022-10-15T15:44:04;2.35;;;1.30;;
70850;SDS011;58475;49.662;9.636;2022-10-15T15:46:31;2.20;;;1.20;;
70850;SDS011;58475;49.662;9.636;2022-10-15T15:48:57;4.20;;;1.50;;
70850;SDS011;58475;49.662;9.636;2022-10-15T15:51:27;2.33;;;1.10;;
70850;SDS011;58475;49.662;9.636;2022-10-15T15:53:54;1.65;;;1.10;;
70850;SDS011;58475;49.662;9.636;2022-10-15T15:56:20;3.20;;;1.30;;
70850;SDS011;58475;49.662;9.636;2022-10-15T15:58:46;2.65;;;1.38;;
70850;SDS011;58475;49.662;9.636;2022-10-15T16:01:14;2.05;;;1.20;;
70850;SDS011;58475;49.662;9.636;2022-10-15T16:03:41;2.92;;;1.60;;
70850;SDS011;58475;49.662;9.636;2022-10-15T16:06:06;4.75;;;1.70;;
70850;SDS011;58475;49.662;9.636;2022-10-15T16:08:32;5.28;;;2.10;;
70850;SDS011;58475;49.662;9.636;2022-10-15T16:11:02;5.82;;;2.40;;
70850;SDS011;58475;49.662;9.636;2022-10-15T16:13:29;6.00;;;2.97;;
70850;SDS011;58475;49.662;9.636;2022-10-15T16:15:55;6.40;;;2.42;;
70850;SDS011;58475;49.662;9.636;2022-10-15T16:18:21;6.70;;;2.22;;
70850;SDS011;58475;49.662;9.636;2022-10-15T16:20:46;3.80;;;2.05;;
70850;SDS011;58475;49.662;9.636;2022-10-15T16:23:12;2.95;;;1.67;;
70850;SDS011;58475;49.662;9.636;2022-10-15T16:25:39;3.30;;;1.77;;
70850;SDS011;58475;49.662;9.636;2022-10-15T16:28:04;2.03;;;1.50;;
70850;SDS011;58475;49.662;9.636;2022-10-15T16:30:30;5.40;;;1.77;;
70850;SDS011;58475;49.662;9.636;2022-10-15T16:32:55;6.70;;;2.53;;
70850;SDS011;58475;49.662;9.636;2022-10-15T16:35:21;3.65;;;1.83;;
70850;SDS011;58475;49.662;9.636;2022-10-15T16:37:46;4.57;;;2.60;;
70850;SDS011;58475;49.662;9.636;2022-10-15T16:40:12;4.13;;;1.67;;
70850;SDS011;58475;49.662;9.636;2022-10-15T16:42:37;3.47;;;1.73;;
70850;SDS011;58475;49.662;9.636;2022-10-15T16:45:03;5.68;;;2.70;;
70850;SDS011;58475;49.662;9.636;2022-10-15T16:47:32;5.32;;;2.60;;
70850;SDS011;58475;49.662;9.636;2022-10-15T16:49:57;3.58;;;2.10;;
70850;SDS011;58475;49.662;9.636;2022-10-15T16:52:23;4.28;;;2.00;;
70850;SDS011;58475;49.662;9.636;2022-10-15T16:54:48;5.13;;;1.60;;
70850;SDS011;58475;49.662;9.636;2022-10-15T16:57:14;3.38;;;1.95;;
70850;SDS011;58475;49.662;9.636;2022-10-15T16:59:40;5.13;;;2.00;;
70850;SDS011;58475;49.662;9.636;2022-10-15T17:02:05;5.03;;;2.22;;
70850;SDS011;58475;49.662;9.636;2022-10-15T17:04:31;8.85;;;4.25;;
70850;SDS011;58475;49.662;9.636;2022-10-15T17:06:56;5.30;;;2.47;;
70850;SDS011;58475;49.662;9.636;2022-10-15T17:09:22;6.20;;;2.90;;
70850;SDS011;58475;49.662;9.636;2022-10-15T17:11:47;3.55;;;1.60;;
70850;SDS011;58475;49.662;9.636;2022-10-15T17:14:15;4.63;;;1.92;;
70850;SDS011;58475;49.662;9.636;2022-10-15T17:16:43;6.45;;;3.70;;
70850;SDS011;58475;49.662;9.636;2022-10-15T17:19:14;1.30;;;1.20;;
70850;SDS011;58475;49.662;9.636;2022-10-15T17:21:41;3.15;;;1.75;;